KHB103 ZSNB-UHHH
Flight info
| Callsign | KHB103 |
|---|---|
| Flight time | N/A |
| Altitude | 41100 |
| Route | GOV91D GOVNI B221 NINAS G327 LAMEN/N0482F410 A593 SADLI Y590 ELGEP B576 SOSDO Y571 PSN A586 TENAS B467 KANSU/K0900F410 B467 NULAR L731 LUTEL L168 AGUNI AGUNI6D |
| Aircraft | A359/H-SDE2E3GHIJ3J4J5LM1ORWXY/LB1D1 |
Departure
| Time | N/A |
|---|---|
| Airport | Ningbo Lishe International Airport (ZSNB) |
Arrival
| Time | 2026-04-22 07:25 |
|---|---|
| Airport | Khabarovsk Novy Airport (UHHH) |
| Time | Latitude | Longitude | Altitude | Speed | Heading |
|---|---|---|---|---|---|
| 2026-04-22 06:17 | 41.88302 | 134.45096 | 40828 ft | 503 kts | 2° |
| 2026-04-22 06:17 | 41.93836 | 134.46769 | 40824 ft | 502 kts | 2° |
| 2026-04-22 06:18 | 42.07346 | 134.50867 | 40812 ft | 500 kts | 2° |
| 2026-04-22 06:19 | 42.14140 | 134.52932 | 40807 ft | 500 kts | 2° |
| 2026-04-22 06:19 | 42.20944 | 134.55006 | 40805 ft | 500 kts | 2° |
| 2026-04-22 06:20 | 42.27720 | 134.57077 | 40800 ft | 499 kts | 2° |
| 2026-04-22 06:20 | 42.34496 | 134.59151 | 40798 ft | 499 kts | 2° |
| 2026-04-22 06:21 | 42.41261 | 134.61226 | 40800 ft | 499 kts | 2° |
| 2026-04-22 06:21 | 42.47925 | 134.63275 | 40797 ft | 498 kts | 2° |
| 2026-04-22 06:22 | 42.54692 | 134.65361 | 40793 ft | 498 kts | 2° |
| 2026-04-22 06:22 | 42.61461 | 134.67452 | 40795 ft | 499 kts | 2° |
| 2026-04-22 06:23 | 42.68233 | 134.69547 | 40791 ft | 499 kts | 2° |
| 2026-04-22 06:23 | 42.74980 | 134.71640 | 40793 ft | 499 kts | 2° |
| 2026-04-22 06:24 | 42.85147 | 134.74803 | 40790 ft | 499 kts | 3° |
| 2026-04-22 06:25 | 42.91929 | 134.76921 | 40788 ft | 500 kts | 3° |
| 2026-04-22 06:25 | 42.98706 | 134.79039 | 40786 ft | 500 kts | 3° |
| 2026-04-22 06:26 | 43.05506 | 134.81168 | 40781 ft | 500 kts | 3° |
| 2026-04-22 06:26 | 43.12284 | 134.83296 | 40782 ft | 500 kts | 3° |
| 2026-04-22 06:27 | 43.19074 | 134.85432 | 40775 ft | 500 kts | 3° |
| 2026-04-22 06:27 | 43.25828 | 134.87562 | 40775 ft | 500 kts | 4° |
| 2026-04-22 06:28 | 43.32617 | 134.89708 | 40770 ft | 500 kts | 4° |
| 2026-04-22 06:28 | 43.39396 | 134.91857 | 40767 ft | 500 kts | 4° |
| 2026-04-22 06:29 | 43.46176 | 134.94010 | 40764 ft | 500 kts | 4° |
| 2026-04-22 06:29 | 43.52975 | 134.96174 | 40763 ft | 500 kts | 4° |
| 2026-04-22 06:30 | 43.59757 | 134.98339 | 40761 ft | 500 kts | 4° |
| 2026-04-22 06:30 | 43.66520 | 135.00501 | 40759 ft | 500 kts | 4° |
| 2026-04-22 06:31 | 43.73260 | 135.02661 | 40759 ft | 500 kts | 4° |
| 2026-04-22 06:31 | 43.80032 | 135.04836 | 40757 ft | 499 kts | 4° |
| 2026-04-22 06:32 | 43.86791 | 135.07013 | 40757 ft | 498 kts | 5° |
| 2026-04-22 06:32 | 43.93547 | 135.09194 | 40755 ft | 498 kts | 5° |
| 2026-04-22 06:33 | 44.00288 | 135.11375 | 40751 ft | 497 kts | 5° |
| 2026-04-22 06:33 | 44.07022 | 135.13558 | 40747 ft | 497 kts | 5° |
| 2026-04-22 06:34 | 44.13715 | 135.15733 | 40745 ft | 497 kts | 5° |
| 2026-04-22 06:34 | 44.20437 | 135.17923 | 40742 ft | 496 kts | 5° |
| 2026-04-22 06:35 | 44.27166 | 135.20118 | 40738 ft | 496 kts | 5° |
| 2026-04-22 06:35 | 44.33883 | 135.22318 | 40745 ft | 496 kts | 5° |
| 2026-04-22 06:36 | 44.40601 | 135.24526 | 40736 ft | 496 kts | 5° |
| 2026-04-22 06:36 | 44.47336 | 135.26744 | 40738 ft | 496 kts | 5° |
| 2026-04-22 06:37 | 44.54053 | 135.28960 | 40742 ft | 497 kts | 6° |
| 2026-04-22 06:37 | 44.60799 | 135.31190 | 40741 ft | 498 kts | 6° |
| 2026-04-22 06:38 | 44.67545 | 135.33427 | 40742 ft | 498 kts | 6° |
| 2026-04-22 06:38 | 44.74277 | 135.35664 | 40741 ft | 498 kts | 6° |
| 2026-04-22 06:39 | 44.81021 | 135.37910 | 40742 ft | 498 kts | 6° |
| 2026-04-22 06:39 | 44.87797 | 135.39952 | 40746 ft | 495 kts | 2° |
| 2026-04-22 06:40 | 44.94607 | 135.41379 | 40745 ft | 493 kts | 1° |
| 2026-04-22 06:40 | 45.01388 | 135.42756 | 40741 ft | 494 kts | 2° |
| 2026-04-22 06:41 | 45.08193 | 135.44240 | 40739 ft | 495 kts | 2° |
| 2026-04-22 06:41 | 45.14986 | 135.45780 | 40734 ft | 495 kts | 3° |
| 2026-04-22 06:42 | 45.20645 | 135.47075 | 40737 ft | 495 kts | 3° |
| 2026-04-22 06:42 | 45.28555 | 135.48886 | 40737 ft | 495 kts | 3° |
| 2026-04-22 06:43 | 45.35365 | 135.50444 | 40736 ft | 496 kts | 3° |
| 2026-04-22 06:43 | 45.42189 | 135.52009 | 40735 ft | 496 kts | 4° |
| 2026-04-22 06:44 | 45.47890 | 135.53320 | 40731 ft | 496 kts | 4° |
| 2026-04-22 06:44 | 45.54674 | 135.54883 | 40733 ft | 496 kts | 4° |
| 2026-04-22 06:45 | 45.61479 | 135.56456 | 40729 ft | 496 kts | 4° |
| 2026-04-22 06:45 | 45.68279 | 135.58031 | 40726 ft | 496 kts | 4° |
| 2026-04-22 06:46 | 45.75102 | 135.59614 | 40729 ft | 496 kts | 4° |
| 2026-04-22 06:46 | 45.81909 | 135.61198 | 40728 ft | 495 kts | 4° |
| 2026-04-22 06:47 | 45.88694 | 135.62780 | 40724 ft | 496 kts | 4° |
| 2026-04-22 06:47 | 45.95521 | 135.64376 | 40724 ft | 496 kts | 5° |
| 2026-04-22 06:48 | 46.02321 | 135.65971 | 40724 ft | 495 kts | 5° |
| 2026-04-22 06:48 | 46.09132 | 135.67576 | 40715 ft | 495 kts | 5° |
| 2026-04-22 06:49 | 46.15898 | 135.69172 | 40715 ft | 495 kts | 5° |
| 2026-04-22 06:49 | 46.22705 | 135.70779 | 40721 ft | 495 kts | 5° |
| 2026-04-22 06:50 | 46.29503 | 135.72390 | 40714 ft | 495 kts | 5° |
| 2026-04-22 06:50 | 46.36312 | 135.73346 | 40712 ft | 488 kts | 353° |
| 2026-04-22 06:51 | 46.42997 | 135.72002 | 40709 ft | 484 kts | 347° |
| 2026-04-22 06:51 | 46.49650 | 135.70341 | 40707 ft | 485 kts | 347° |
| 2026-04-22 06:52 | 46.56257 | 135.68682 | 40705 ft | 485 kts | 347° |
| 2026-04-22 06:52 | 46.62963 | 135.66993 | 40704 ft | 485 kts | 347° |
| 2026-04-22 06:53 | 46.69574 | 135.65325 | 40703 ft | 486 kts | 347° |
| 2026-04-22 06:53 | 46.73222 | 135.64402 | 40704 ft | 486 kts | 347° |
| 2026-04-22 06:54 | 46.78556 | 135.63051 | 40703 ft | 486 kts | 347° |
| 2026-04-22 06:55 | 46.85308 | 135.62244 | 40705 ft | 492 kts | 360° |
| 2026-04-22 06:55 | 46.92156 | 135.63009 | 40704 ft | 494 kts | 1° |
| 2026-04-22 06:56 | 46.99014 | 135.63843 | 40705 ft | 494 kts | 1° |
| 2026-04-22 06:56 | 47.05864 | 135.64672 | 40704 ft | 494 kts | 1° |
| 2026-04-22 06:57 | 47.12710 | 135.65499 | 40703 ft | 494 kts | 1° |
| 2026-04-22 06:57 | 47.19514 | 135.66324 | 40697 ft | 494 kts | 1° |
| 2026-04-22 06:58 | 47.26367 | 135.67156 | 40158 ft | 492 kts | 1° |
| 2026-04-22 06:58 | 47.29762 | 135.67569 | 39234 ft | 486 kts | 1° |
| 2026-04-22 06:58 | 47.33111 | 135.67980 | 38477 ft | 480 kts | 1° |
| 2026-04-22 06:58 | 47.36420 | 135.68385 | 37677 ft | 475 kts | 1° |
| 2026-04-22 06:59 | 47.39720 | 135.68786 | 36934 ft | 477 kts | 1° |
| 2026-04-22 06:59 | 47.42960 | 135.69180 | 36214 ft | 479 kts | 1° |
| 2026-04-22 06:59 | 47.46292 | 135.69587 | 35449 ft | 481 kts | 2° |
| 2026-04-22 06:59 | 47.49576 | 135.69990 | 34671 ft | 484 kts | 2° |
| 2026-04-22 07:00 | 47.52947 | 135.70405 | 33789 ft | 489 kts | 2° |
| 2026-04-22 07:00 | 47.56313 | 135.70820 | 32767 ft | 492 kts | 2° |
| 2026-04-22 07:00 | 47.59726 | 135.71245 | 31802 ft | 494 kts | 2° |
| 2026-04-22 07:00 | 47.63157 | 135.71675 | 30806 ft | 495 kts | 2° |
| 2026-04-22 07:01 | 47.66592 | 135.72107 | 29773 ft | 496 kts | 3° |
| 2026-04-22 07:01 | 47.70041 | 135.72543 | 28613 ft | 493 kts | 3° |
| 2026-04-22 07:01 | 47.73380 | 135.72968 | 27915 ft | 476 kts | 2° |
| 2026-04-22 07:01 | 47.76661 | 135.73382 | 27202 ft | 469 kts | 2° |
| 2026-04-22 07:02 | 47.79878 | 135.73785 | 26483 ft | 463 kts | 2° |
| 2026-04-22 07:02 | 47.83092 | 135.74166 | 25760 ft | 458 kts | 2° |
| 2026-04-22 07:02 | 47.86249 | 135.74514 | 25052 ft | 453 kts | 1° |
| 2026-04-22 07:02 | 47.89368 | 135.74858 | 24356 ft | 447 kts | 1° |
| 2026-04-22 07:03 | 47.92458 | 135.75203 | 23663 ft | 443 kts | 1° |
| 2026-04-22 07:03 | 47.95513 | 135.75549 | 22915 ft | 438 kts | 1° |
| 2026-04-22 07:03 | 47.98500 | 135.75882 | 22186 ft | 432 kts | 1° |
| 2026-04-22 07:03 | 48.01514 | 135.76220 | 21498 ft | 426 kts | 1° |
| 2026-04-22 07:04 | 48.04421 | 135.76547 | 20814 ft | 422 kts | 1° |
| 2026-04-22 07:04 | 48.07334 | 135.76875 | 20119 ft | 418 kts | 1° |
| 2026-04-22 07:04 | 48.10250 | 135.77207 | 19425 ft | 414 kts | 1° |
| 2026-04-22 07:04 | 48.13078 | 135.77529 | 18728 ft | 411 kts | 1° |
| 2026-04-22 07:05 | 48.15933 | 135.77855 | 18020 ft | 408 kts | 1° |
| 2026-04-22 07:05 | 48.18759 | 135.78174 | 17222 ft | 406 kts | 1° |
| 2026-04-22 07:05 | 48.21564 | 135.78490 | 16505 ft | 402 kts | 2° |
| 2026-04-22 07:05 | 48.24329 | 135.78805 | 15786 ft | 397 kts | 2° |
| 2026-04-22 07:06 | 48.27070 | 135.79118 | 15077 ft | 393 kts | 2° |
| 2026-04-22 07:06 | 48.29779 | 135.79430 | 14359 ft | 389 kts | 2° |
| 2026-04-22 07:06 | 48.32473 | 135.79740 | 13633 ft | 386 kts | 2° |
| 2026-04-22 07:06 | 48.35136 | 135.80047 | 12865 ft | 382 kts | 3° |
| 2026-04-22 07:07 | 48.37785 | 135.80355 | 12128 ft | 376 kts | 2° |
| 2026-04-22 07:07 | 48.40377 | 135.80657 | 11427 ft | 372 kts | 2° |
| 2026-04-22 07:07 | 48.42685 | 135.80925 | 10848 ft | 367 kts | 2° |
| 2026-04-22 07:07 | 48.45168 | 135.81214 | 10697 ft | 347 kts | 2° |
| 2026-04-22 07:08 | 48.47498 | 135.81486 | 10590 ft | 328 kts | 2° |
| 2026-04-22 07:08 | 48.49719 | 135.81744 | 10487 ft | 310 kts | 2° |
| 2026-04-22 07:08 | 48.51815 | 135.81989 | 10383 ft | 295 kts | 2° |
| 2026-04-22 07:08 | 48.53816 | 135.82223 | 10271 ft | 281 kts | 2° |
| 2026-04-22 07:09 | 48.55708 | 135.82453 | 10171 ft | 269 kts | 3° |
| 2026-04-22 07:09 | 48.57539 | 135.82680 | 10053 ft | 257 kts | 3° |
| 2026-04-22 07:09 | 48.59290 | 135.82892 | 9943 ft | 247 kts | 2° |
| 2026-04-22 07:09 | 48.60929 | 135.83086 | 9831 ft | 238 kts | 2° |
| 2026-04-22 07:10 | 48.62570 | 135.83278 | 9711 ft | 232 kts | 2° |
| 2026-04-22 07:10 | 48.64172 | 135.83466 | 9594 ft | 234 kts | 2° |
| 2026-04-22 07:10 | 48.65824 | 135.83654 | 9426 ft | 241 kts | 2° |
| 2026-04-22 07:10 | 48.67497 | 135.83848 | 9235 ft | 241 kts | 2° |
| 2026-04-22 07:11 | 48.69168 | 135.83941 | 8900 ft | 240 kts | 359° |
| 2026-04-22 07:11 | 48.70843 | 135.83959 | 8538 ft | 240 kts | 359° |
| 2026-04-22 07:11 | 48.72490 | 135.83968 | 8253 ft | 237 kts | 358° |
| 2026-04-22 07:11 | 48.74128 | 135.83972 | 7974 ft | 233 kts | 358° |
| 2026-04-22 07:12 | 48.75741 | 135.83985 | 7741 ft | 232 kts | 359° |
| 2026-04-22 07:12 | 48.77357 | 135.84011 | 7476 ft | 231 kts | 359° |
| 2026-04-22 07:12 | 48.78962 | 135.84048 | 7212 ft | 230 kts | 359° |
| 2026-04-22 07:12 | 48.80546 | 135.84088 | 6964 ft | 229 kts | 360° |
| 2026-04-22 07:13 | 48.82139 | 135.83995 | 6705 ft | 227 kts | 350° |
| 2026-04-22 07:13 | 48.83608 | 135.83151 | 6616 ft | 227 kts | 333° |
| 2026-04-22 07:13 | 48.84977 | 135.81970 | 6618 ft | 227 kts | 330° |
| 2026-04-22 07:13 | 48.86339 | 135.80749 | 6618 ft | 226 kts | 330° |
| 2026-04-22 07:14 | 48.87692 | 135.79534 | 6623 ft | 226 kts | 330° |
| 2026-04-22 07:14 | 48.88983 | 135.78185 | 6611 ft | 227 kts | 318° |
| 2026-04-22 07:14 | 48.89859 | 135.76201 | 6611 ft | 228 kts | 290° |
| 2026-04-22 07:14 | 48.89994 | 135.73810 | 6584 ft | 231 kts | 262° |
| 2026-04-22 07:15 | 48.89340 | 135.71588 | 6502 ft | 233 kts | 234° |
| 2026-04-22 07:15 | 48.88245 | 135.69765 | 6400 ft | 235 kts | 227° |
| 2026-04-22 07:15 | 48.87099 | 135.68044 | 6289 ft | 234 kts | 226° |
| 2026-04-22 07:15 | 48.85945 | 135.66297 | 6166 ft | 234 kts | 227° |
| 2026-04-22 07:16 | 48.84805 | 135.64549 | 6054 ft | 234 kts | 227° |
| 2026-04-22 07:16 | 48.83664 | 135.62786 | 5934 ft | 233 kts | 227° |
| 2026-04-22 07:16 | 48.82530 | 135.61026 | 5820 ft | 233 kts | 228° |
| 2026-04-22 07:16 | 48.81657 | 135.59420 | 5735 ft | 231 kts | 237° |
| 2026-04-22 07:17 | 48.80758 | 135.57491 | 5618 ft | 232 kts | 235° |
| 2026-04-22 07:17 | 48.79706 | 135.55638 | 5503 ft | 232 kts | 228° |
| 2026-04-22 07:17 | 48.78541 | 135.53931 | 5483 ft | 232 kts | 225° |
| 2026-04-22 07:17 | 48.77345 | 135.52278 | 5482 ft | 233 kts | 224° |
| 2026-04-22 07:18 | 48.76148 | 135.50632 | 5485 ft | 232 kts | 224° |
| 2026-04-22 07:18 | 48.74952 | 135.48976 | 5353 ft | 233 kts | 224° |
| 2026-04-22 07:18 | 48.73763 | 135.47321 | 4963 ft | 230 kts | 225° |
| 2026-04-22 07:18 | 48.72585 | 135.45679 | 4368 ft | 229 kts | 224° |
| 2026-04-22 07:19 | 48.71417 | 135.44053 | 3952 ft | 233 kts | 224° |
| 2026-04-22 07:19 | 48.70222 | 135.42397 | 3613 ft | 233 kts | 224° |
| 2026-04-22 07:19 | 48.69007 | 135.40723 | 3351 ft | 231 kts | 224° |
| 2026-04-22 07:19 | 48.67862 | 135.39156 | 3189 ft | 215 kts | 224° |
| 2026-04-22 07:20 | 48.66793 | 135.37697 | 3076 ft | 201 kts | 224° |
| 2026-04-22 07:20 | 48.65803 | 135.36347 | 2975 ft | 187 kts | 224° |
| 2026-04-22 07:20 | 48.64882 | 135.35092 | 2835 ft | 169 kts | 224° |
| 2026-04-22 07:20 | 48.64052 | 135.33960 | 2679 ft | 154 kts | 224° |
| 2026-04-22 07:21 | 48.63281 | 135.32905 | 2475 ft | 145 kts | 224° |
| 2026-04-22 07:21 | 48.62560 | 135.31919 | 2291 ft | 136 kts | 224° |
| 2026-04-22 07:21 | 48.61876 | 135.30979 | 2226 ft | 132 kts | 224° |
| 2026-04-22 07:21 | 48.61185 | 135.30028 | 2106 ft | 135 kts | 224° |
| 2026-04-22 07:22 | 48.60489 | 135.29075 | 1935 ft | 135 kts | 224° |
| 2026-04-22 07:22 | 48.59795 | 135.28124 | 1770 ft | 134 kts | 224° |
| 2026-04-22 07:22 | 48.59116 | 135.27194 | 1591 ft | 133 kts | 224° |
| 2026-04-22 07:22 | 48.58427 | 135.26249 | 1438 ft | 133 kts | 224° |
| 2026-04-22 07:23 | 48.57743 | 135.25313 | 1250 ft | 133 kts | 224° |
| 2026-04-22 07:23 | 48.57061 | 135.24380 | 1065 ft | 132 kts | 225° |
| 2026-04-22 07:23 | 48.56388 | 135.23455 | 869 ft | 130 kts | 224° |
| 2026-04-22 07:23 | 48.55724 | 135.22546 | 706 ft | 128 kts | 223° |
| 2026-04-22 07:24 | 48.55068 | 135.21650 | 551 ft | 126 kts | 222° |
| 2026-04-22 07:24 | 48.54425 | 135.20772 | 398 ft | 124 kts | 221° |
| 2026-04-22 07:24 | 48.53792 | 135.19907 | 268 ft | 122 kts | 221° |
| 2026-04-22 07:24 | 48.53209 | 135.19113 | 257 ft | 104 kts | 222° |
| 2026-04-22 07:25 | 48.52721 | 135.18460 | 251 ft | 82 kts | 221° |
| 2026-04-22 07:25 | 48.52380 | 135.17997 | 249 ft | 32 kts | 223° |
| 2026-04-22 07:25 | 48.52355 | 135.17961 | 249 ft | 0 kts | 223° |
| 2026-04-22 07:25 | 48.52335 | 135.17931 | 250 ft | 13 kts | 226° |
| 2026-04-22 07:26 | 48.52297 | 135.17816 | 252 ft | 13 kts | 278° |
| 2026-04-22 07:26 | 48.52349 | 135.17686 | 252 ft | 16 kts | 309° |
| 2026-04-22 07:26 | 48.52427 | 135.17553 | 252 ft | 14 kts | 311° |
| 2026-04-22 07:26 | 48.52440 | 135.17530 | 252 ft | 1 kts | 311° |
| 2026-04-22 07:27 | 48.52454 | 135.17507 | 252 ft | 6 kts | 311° |
| 2026-04-22 07:27 | 48.52491 | 135.17443 | 252 ft | 10 kts | 307° |
| 2026-04-22 07:27 | 48.52513 | 135.17359 | 252 ft | 0 kts | 290° |
| 2026-04-22 07:27 | 48.52517 | 135.17349 | 252 ft | 3 kts | 295° |
| 2026-04-22 07:28 | 48.52537 | 135.17302 | 252 ft | 0 kts | 307° |
| 2026-04-22 07:30 | 48.52494 | 135.17133 | 252 ft | 0 kts | 312° |